Time;durP1;ratioP1;P1;durP2;ratioP2;P2;SDS_P1;SDS_P2;PMS_P1;PMS_P2;Temp;Humidity;BMP_temperature;BMP_pressure;BME280_temperature;BME280_humidity;BME280_pressure;Samples;Min_cycle;Max_cycle;Signal;HPM_P1;HPM_P2
2022/09/02 00:01:31;;;;;;;1.38;1.23;;;16.70;15.20;;;;;;5095862;28;20650;-80
2022/09/02 00:04:04;;;;;;;2.65;1.20;;;16.70;11.20;;;;;;5089159;28;20205;-85
2022/09/02 00:06:32;;;;;;;2.03;1.20;;;16.60;10.40;;;;;;5075997;28;20283;-84
2022/09/02 00:08:59;;;;;;;2.20;1.10;;;16.60;14.50;;;;;;5075801;28;20240;-84
2022/09/02 00:11:28;;;;;;;1.85;1.33;;;16.60;15.90;;;;;;5075284;28;20212;-83
2022/09/02 00:13:56;;;;;;;1.58;1.20;;;16.60;15.70;;;;;;5075653;28;20189;-84
2022/09/02 00:16:23;;;;;;;1.02;0.95;;;16.60;11.80;;;;;;5085951;28;20212;-85
2022/09/02 00:18:53;;;;;;;1.30;1.00;;;16.60;16.90;;;;;;5095737;28;20200;-85
2022/09/02 00:21:21;;;;;;;1.00;0.90;;;16.50;14.20;;;;;;5095101;28;20809;-84
2022/09/02 00:23:48;;;;;;;1.80;1.08;;;16.50;17.50;;;;;;5094643;28;20215;-81
2022/09/02 00:26:16;;;;;;;0.95;0.80;;;16.40;18.60;;;;;;5094705;28;20204;-82
2022/09/02 00:28:43;;;;;;;1.20;0.90;;;16.40;23.60;;;;;;5087489;28;20577;-82
2022/09/02 00:31:10;;;;;;;1.77;1.00;;;16.40;25.30;;;;;;5054386;28;20657;-81
2022/09/02 00:33:37;;;;;;;1.63;1.10;;;16.30;30.80;;;;;;5054674;28;20738;-82
2022/09/02 00:36:06;;;;;;;1.55;1.00;;;16.30;36.70;;;;;;5054307;28;20213;-82
2022/09/02 00:38:35;;;;;;;0.80;0.80;;;16.30;37.10;;;;;;5061973;28;20456;-82
2022/09/02 00:41:06;;;;;;;1.88;1.05;;;16.30;38.70;;;;;;5074375;28;20267;-81
2022/09/02 00:43:43;;;;;;;2.88;1.17;;;16.30;34.20;;;;;;5076343;28;20189;-82
2022/09/02 00:46:12;;;;;;;1.27;1.00;;;16.30;29.30;;;;;;5073745;28;20256;-82
2022/09/02 00:48:41;;;;;;;1.75;0.90;;;16.30;26.40;;;;;;5073737;28;20254;-81
2022/09/02 00:51:12;;;;;;;1.80;1.00;;;16.20;26.20;;;;;;5073508;28;20601;-80
2022/09/02 00:53:40;;;;;;;2.30;1.10;;;16.20;28.20;;;;;;5057679;28;20657;-79
2022/09/02 00:56:13;;;;;;;1.48;1.02;;;16.20;29.60;;;;;;5057663;28;20205;-82
2022/09/02 00:58:41;;;;;;;2.75;1.15;;;16.20;29.90;;;;;;5073532;28;20193;-80
2022/09/02 01:01:11;;;;;;;1.73;1.10;;;16.20;25.10;;;;;;5073632;28;20209;-80
2022/09/02 01:03:39;;;;;;;2.17;1.23;;;16.20;17.10;;;;;;5074319;28;20205;-82
2022/09/02 01:06:06;;;;;;;2.63;1.00;;;16.20;15.30;;;;;;5073610;28;20594;-82
2022/09/02 01:08:38;;;;;;;1.20;1.10;;;16.10;20.50;;;;;;5069361;28;20230;-80
2022/09/02 01:11:05;;;;;;;1.90;1.17;;;16.10;25.70;;;;;;5053593;28;20202;-81
2022/09/02 01:13:37;;;;;;;1.92;0.90;;;16.10;24.70;;;;;;5052568;28;20214;-83
2022/09/02 01:16:10;;;;;;;2.78;1.33;;;16.10;24.90;;;;;;5053414;28;20487;-83
2022/09/02 01:18:38;;;;;;;1.10;1.00;;;16.10;20.30;;;;;;5064722;28;20193;-82
2022/09/02 01:21:06;;;;;;;1.17;0.77;;;16.10;27.50;;;;;;5072850;28;20213;-81
2022/09/02 01:23:35;;;;;;;1.08;0.95;;;16.00;28.50;;;;;;5074253;28;20197;-81
2022/09/02 01:26:03;;;;;;;3.65;1.25;;;16.00;36.40;;;;;;5078015;28;20190;-82
2022/09/02 01:28:32;;;;;;;2.22;1.00;;;16.00;42.50;;;;;;5078251;28;20205;-81
2022/09/02 01:30:59;;;;;;;2.50;1.10;;;15.90;53.40;;;;;;5081486;28;20504;-81
2022/09/02 01:33:26;;;;;;;1.42;0.88;;;15.90;51.40;;;;;;5080102;28;20257;-82
2022/09/02 01:35:54;;;;;;;0.88;0.77;;;15.90;51.60;;;;;;5079221;28;20250;-82
2022/09/02 01:38:22;;;;;;;1.20;1.10;;;15.90;57.90;;;;;;5078521;28;20196;-80
2022/09/02 01:40:51;;;;;;;3.58;1.23;;;15.90;56.50;;;;;;5059754;28;20288;-80
2022/09/02 01:43:22;;;;;;;2.90;1.35;;;15.80;58.10;;;;;;5055537;28;20264;-80
2022/09/02 01:45:51;;;;;;;2.60;1.23;;;15.80;61.80;;;;;;5065967;28;20376;-81
2022/09/02 01:48:19;;;;;;;1.77;1.23;;;15.80;65.90;;;;;;5075379;28;20216;-81
2022/09/02 01:50:50;;;;;;;1.92;1.20;;;15.70;74.60;;;;;;5074739;28;20208;-80
2022/09/02 01:53:17;;;;;;;1.15;0.98;;;15.70;73.30;;;;;;5076112;28;20231;-80
2022/09/02 01:55:45;;;;;;;1.27;0.90;;;15.70;67.80;;;;;;5075418;28;20272;-83
2022/09/02 01:58:14;;;;;;;1.00;0.90;;;15.60;73.10;;;;;;5076037;28;20202;-81
2022/09/02 02:00:40;;;;;;;1.30;0.93;;;15.60;78.50;;;;;;5074942;28;20205;-82
2022/09/02 02:03:07;;;;;;;1.23;1.13;;;15.60;81.20;;;;;;5072567;28;20624;-82
2022/09/02 02:05:35;;;;;;;1.40;1.30;;;15.60;84.90;;;;;;5072710;28;20292;-81
2022/09/02 02:08:02;;;;;;;1.63;0.90;;;15.50;88.40;;;;;;5053293;28;20229;-83
2022/09/02 02:10:29;;;;;;;1.17;0.90;;;15.60;76.90;;;;;;5051503;28;20202;-82
2022/09/02 02:12:55;;;;;;;1.30;1.00;;;15.50;79.40;;;;;;5052373;28;20200;-82
2022/09/02 02:15:24;;;;;;;1.00;0.90;;;15.50;79.50;;;;;;5062828;28;20211;-80
2022/09/02 02:17:51;;;;;;;2.33;1.00;;;15.40;90.30;;;;;;5072463;28;20193;-84
2022/09/02 02:20:20;;;;;;;1.27;1.10;;;15.40;83.50;;;;;;5072556;28;20193;-79
2022/09/02 02:22:49;;;;;;;1.35;1.05;;;15.40;90.20;;;;;;5052896;28;20233;-81
2022/09/02 02:25:17;;;;;;;2.15;1.00;;;15.40;91.00;;;;;;5059559;28;20207;-81
2022/09/02 02:27:44;;;;;;;1.75;1.00;;;15.30;91.10;;;;;;5080357;28;20205;-85
2022/09/02 02:30:13;;;;;;;1.00;0.90;;;15.30;90.00;;;;;;5080972;28;20204;-84
2022/09/02 02:32:42;;;;;;;0.95;0.88;;;15.20;87.80;;;;;;5079139;28;20216;-80
2022/09/02 02:35:09;;;;;;;0.95;0.80;;;15.30;89.20;;;;;;5062568;28;20198;-81
2022/09/02 02:37:36;;;;;;;2.13;1.00;;;15.20;88.50;;;;;;5059255;28;20752;-82
2022/09/02 02:40:04;;;;;;;1.33;1.05;;;15.20;86.60;;;;;;5074070;28;20215;-83
2022/09/02 02:42:32;;;;;;;1.17;1.08;;;15.10;89.10;;;;;;5080303;28;20274;-85
2022/09/02 02:44:59;;;;;;;2.35;1.10;;;15.10;91.60;;;;;;5080085;28;20200;-83
2022/09/02 02:47:26;;;;;;;1.03;0.90;;;15.00;95.70;;;;;;5080085;28;20291;-83
2022/09/02 02:49:55;;;;;;;2.00;1.07;;;15.00;95.90;;;;;;5079524;28;20504;-80
2022/09/02 02:52:21;;;;;;;1.02;0.80;;;15.00;97.60;;;;;;5078252;28;20197;-81
2022/09/02 02:54:48;;;;;;;1.20;1.10;;;15.00;98.20;;;;;;5078805;28;20207;-79
2022/09/02 02:57:15;;;;;;;1.48;0.98;;;14.90;98.90;;;;;;5058814;28;20217;-79
2022/09/02 02:59:42;;;;;;;1.38;1.00;;;14.90;99.90;;;;;;5058118;28;20193;-80
2022/09/02 03:02:09;;;;;;;2.00;1.00;;;14.80;99.90;;;;;;5059422;28;20228;-80
2022/09/02 03:04:38;;;;;;;1.57;1.30;;;14.90;99.90;;;;;;5058694;28;20197;-79
2022/09/02 03:07:07;;;;;;;2.65;1.42;;;14.80;99.90;;;;;;5058496;28;20201;-82
2022/09/02 03:09:34;;;;;;;1.48;1.00;;;14.80;99.90;;;;;;5058459;28;20206;-80
2022/09/02 03:12:01;;;;;;;0.95;0.90;;;14.80;99.90;;;;;;5070067;28;20280;-80
2022/09/02 03:14:29;;;;;;;1.20;1.00;;;14.80;99.90;;;;;;5078343;28;20257;-83
2022/09/02 03:16:56;;;;;;;1.70;1.08;;;14.70;99.90;;;;;;5063160;28;20202;-82
2022/09/02 03:19:23;;;;;;;2.90;1.20;;;14.70;99.90;;;;;;5058685;28;20193;-80
2022/09/02 03:21:50;;;;;;;1.03;1.00;;;14.70;99.90;;;;;;5058871;28;20208;-81
2022/09/02 03:24:19;;;;;;;3.10;1.10;;;14.70;99.90;;;;;;5058738;28;20590;-82
2022/09/02 03:26:46;;;;;;;0.87;0.87;;;14.70;99.90;;;;;;5059136;28;20293;-82
2022/09/02 03:29:13;;;;;;;3.47;1.47;;;14.60;99.90;;;;;;5058712;28;20194;-81
2022/09/02 03:31:40;;;;;;;1.95;0.90;;;14.60;99.90;;;;;;5078463;28;20249;-80
2022/09/02 03:34:07;;;;;;;1.87;1.27;;;14.60;99.90;;;;;;5078800;28;20230;-81
2022/09/02 03:36:37;;;;;;;1.40;1.10;;;14.60;99.90;;;;;;5095476;28;20247;-82
2022/09/02 03:39:05;;;;;;;1.53;1.20;;;14.60;99.90;;;;;;5090236;28;20225;-81
2022/09/02 03:41:34;;;;;;;1.00;1.00;;;14.60;99.90;;;;;;5074700;28;20201;-80
2022/09/02 03:44:01;;;;;;;3.63;1.83;;;14.50;99.90;;;;;;5064651;28;20222;-79
2022/09/02 03:46:28;;;;;;;1.50;1.30;;;14.50;99.90;;;;;;5055185;28;20198;-81
2022/09/02 03:48:55;;;;;;;4.50;1.10;;;14.50;99.90;;;;;;5072327;28;20216;-82
2022/09/02 03:51:23;;;;;;;1.95;1.15;;;14.50;99.90;;;;;;5074720;28;20220;-81
2022/09/02 03:53:51;;;;;;;2.40;1.17;;;14.50;99.90;;;;;;5074698;28;20193;-79
2022/09/02 03:56:19;;;;;;;1.63;1.30;;;14.50;99.90;;;;;;5053802;28;20198;-80
2022/09/02 03:58:50;;;;;;;2.63;1.33;;;14.50;99.90;;;;;;5054509;28;20202;-82
2022/09/02 04:01:20;;;;;;;2.57;1.50;;;14.50;99.90;;;;;;5055015;28;20217;-81
2022/09/02 04:03:47;;;;;;;3.67;1.20;;;14.50;99.90;;;;;;5053836;28;20317;-81
2022/09/02 04:06:16;;;;;;;1.97;1.10;;;14.50;99.90;;;;;;5054201;28;20208;-82
2022/09/02 04:08:44;;;;;;;2.20;1.20;;;14.50;99.90;;;;;;5054004;28;20287;-83
2022/09/02 04:11:16;;;;;;;3.93;1.47;;;14.40;99.90;;;;;;5063563;28;20213;-81
2022/09/02 04:13:43;;;;;;;1.73;1.23;;;14.50;99.90;;;;;;5078510;28;20201;-81
2022/09/02 04:16:14;;;;;;;3.33;1.30;;;14.40;99.90;;;;;;5077495;28;20201;-81
2022/09/02 04:18:41;;;;;;;1.30;1.10;;;14.40;99.90;;;;;;5073976;28;20224;-81
2022/09/02 04:21:09;;;;;;;1.20;1.10;;;14.40;99.90;;;;;;5059081;28;20217;-81
2022/09/02 04:23:37;;;;;;;3.00;1.20;;;14.40;99.90;;;;;;5054329;28;20518;-81
2022/09/02 04:26:05;;;;;;;1.30;1.10;;;14.40;99.90;;;;;;5053666;28;20198;-79
2022/09/02 04:28:32;;;;;;;2.10;1.15;;;14.40;99.90;;;;;;5054025;28;20206;-80
2022/09/02 04:30:59;;;;;;;1.93;1.50;;;14.40;99.90;;;;;;5053488;28;20554;-82
2022/09/02 04:33:27;;;;;;;1.30;1.17;;;14.40;99.90;;;;;;5053667;28;20198;-78
2022/09/02 04:35:54;;;;;;;1.10;0.90;;;14.40;99.90;;;;;;5054064;28;20194;-81
2022/09/02 04:38:20;;;;;;;12.03;1.63;;;14.40;99.90;;;;;;5054311;28;20516;-82
2022/09/02 04:40:47;;;;;;;2.20;1.10;;;14.40;99.90;;;;;;5054316;28;20194;-82
2022/09/02 04:43:15;;;;;;;1.10;1.00;;;14.40;99.90;;;;;;5054152;28;20240;-82
2022/09/02 04:45:43;;;;;;;2.67;1.10;;;14.40;99.70;;;;;;5067379;28;20212;-82
2022/09/02 04:48:10;;;;;;;2.40;1.20;;;14.40;99.90;;;;;;5073852;28;20205;-83
2022/09/02 04:50:41;;;;;;;1.43;1.27;;;14.50;94.60;;;;;;5068205;28;20198;-82
2022/09/02 04:53:09;;;;;;;1.50;1.13;;;14.50;95.10;;;;;;5054168;28;20197;-82
2022/09/02 04:55:39;;;;;;;2.40;1.10;;;14.50;96.40;;;;;;5062806;28;20625;-83
2022/09/02 04:58:06;;;;;;;1.93;1.47;;;14.50;94.30;;;;;;5073675;28;20589;-83
2022/09/02 05:00:33;;;;;;;1.53;1.23;;;14.50;93.60;;;;;;5058200;28;20201;-82
2022/09/02 05:03:00;;;;;;;5.13;1.33;;;14.50;92.30;;;;;;5054042;28;20218;-81
2022/09/02 05:05:27;;;;;;;2.92;1.10;;;14.50;87.00;;;;;;5053878;28;20212;-83
2022/09/02 05:07:55;;;;;;;1.93;1.20;;;14.50;84.00;;;;;;5054015;28;20257;-82
2022/09/02 05:10:22;;;;;;;4.10;1.40;;;14.50;79.10;;;;;;5072889;28;20589;-85
2022/09/02 05:12:50;;;;;;;3.47;1.40;;;14.50;86.60;;;;;;5073719;28;20193;-83
2022/09/02 05:15:17;;;;;;;1.88;1.20;;;14.50;87.20;;;;;;5073381;28;20197;-83
2022/09/02 05:17:45;;;;;;;3.87;1.50;;;14.50;85.70;;;;;;5063736;28;20205;-85
2022/09/02 05:20:12;;;;;;;3.07;1.30;;;14.50;83.20;;;;;;5053541;28;20206;-83
2022/09/02 05:22:39;;;;;;;2.10;1.30;;;14.50;87.40;;;;;;5054171;28;20240;-83
2022/09/02 05:25:09;;;;;;;4.83;1.23;;;14.60;90.40;;;;;;5052553;28;20758;-83
2022/09/02 05:27:36;;;;;;;1.30;1.20;;;14.60;93.30;;;;;;5071123;28;20209;-81
2022/09/02 05:30:04;;;;;;;2.53;1.37;;;14.60;92.70;;;;;;5072814;28;20201;-80
2022/09/02 05:32:31;;;;;;;2.00;0.87;;;14.60;85.60;;;;;;5072588;28;20270;-80
2022/09/02 05:34:58;;;;;;;1.67;1.10;;;14.60;83.40;;;;;;5071912;28;20613;-81
2022/09/02 05:37:26;;;;;;;4.60;1.40;;;14.60;85.80;;;;;;5072819;28;20383;-81
2022/09/02 05:39:53;;;;;;;2.67;1.60;;;14.70;89.30;;;;;;5071665;28;20204;-81
2022/09/02 05:42:21;;;;;;;2.38;1.40;;;14.70;84.70;;;;;;5071274;28;20198;-82
2022/09/02 05:44:48;;;;;;;3.73;1.80;;;14.70;84.60;;;;;;5072669;28;20209;-81
2022/09/02 05:47:15;;;;;;;1.80;1.23;;;14.70;62.50;;;;;;5072329;28;20493;-81
2022/09/02 05:49:42;;;;;;;1.17;1.00;;;14.70;64.20;;;;;;5071948;28;20208;-81
2022/09/02 05:52:10;;;;;;;1.83;1.40;;;14.70;68.10;;;;;;5073431;28;20197;-81
2022/09/02 05:54:39;;;;;;;3.00;1.20;;;14.80;74.50;;;;;;5058210;28;20420;-82
2022/09/02 05:57:08;;;;;;;3.27;1.60;;;14.80;78.40;;;;;;5063369;28;20255;-82
2022/09/02 05:59:38;;;;;;;1.77;1.10;;;14.80;74.60;;;;;;5072727;28;20246;-81
2022/09/02 06:02:06;;;;;;;2.00;1.30;;;14.80;75.60;;;;;;5072201;28;20197;-84
2022/09/02 06:04:36;;;;;;;2.47;1.37;;;14.90;73.70;;;;;;5073111;28;20328;-81
2022/09/02 06:07:03;;;;;;;2.57;1.50;;;14.90;77.20;;;;;;5073021;28;20186;-82
2022/09/02 06:09:30;;;;;;;3.57;1.30;;;15.00;69.50;;;;;;5072714;28;20642;-83
2022/09/02 06:11:57;;;;;;;1.53;1.43;;;15.00;59.60;;;;;;5072285;28;20200;-81
2022/09/02 06:14:26;;;;;;;2.53;1.30;;;15.10;54.10;;;;;;5072488;28;20202;-83
2022/09/02 06:16:55;;;;;;;1.40;1.20;;;15.10;37.80;;;;;;5072168;28;20189;-83
2022/09/02 06:19:24;;;;;;;2.10;1.50;;;15.20;39.60;;;;;;5072741;28;20266;-83
2022/09/02 06:21:51;;;;;;;1.17;1.00;;;15.20;28.10;;;;;;5056015;28;20298;-80
2022/09/02 06:24:18;;;;;;;1.13;1.02;;;15.30;25.90;;;;;;5052224;28;20222;-83
2022/09/02 06:26:45;;;;;;;1.58;1.10;;;15.40;28.40;;;;;;5069153;28;20292;-84
2022/09/02 06:29:13;;;;;;;2.13;1.30;;;15.40;26.60;;;;;;5074410;28;20204;-80
2022/09/02 06:31:41;;;;;;;1.70;1.27;;;15.50;25.50;;;;;;5079115;28;20224;-83
2022/09/02 06:34:13;;;;;;;1.53;1.40;;;15.60;17.10;;;;;;5087399;28;20304;-83
2022/09/02 06:36:41;;;;;;;1.20;0.88;;;15.70;15.50;;;;;;5084735;28;20258;-81
2022/09/02 06:39:11;;;;;;;2.15;1.30;;;15.70;1.00;;;;;;5070050;28;20204;-82
2022/09/02 06:41:40;;;;;;;3.67;1.30;;;15.80;1.00;;;;;;5081695;28;20223;-80
2022/09/02 06:44:08;;;;;;;1.73;1.10;;;15.80;1.00;;;;;;5064877;28;20311;-81
2022/09/02 06:46:37;;;;;;;3.63;1.80;;;15.90;1.00;;;;;;5069999;28;20216;-82
2022/09/02 06:49:07;;;;;;;3.15;1.30;;;16.00;1.00;;;;;;5055760;28;20297;-81
2022/09/02 06:51:38;;;;;;;2.33;1.27;;;16.10;1.00;;;;;;5052540;28;20232;-79
2022/09/02 06:54:06;;;;;;;3.85;1.48;;;16.10;1.00;;;;;;5052338;28;20198;-81
2022/09/02 06:56:34;;;;;;;1.75;1.27;;;16.30;1.00;;;;;;5052225;28;20199;-82
2022/09/02 06:59:01;;;;;;;2.10;1.40;;;16.30;1.00;;;;;;5051751;28;20282;-82
2022/09/02 07:01:30;;;;;;;2.70;1.55;;;16.40;1.00;;;;;;5092607;28;20212;-85
2022/09/02 07:06:44;;;;;;;2.45;1.17;;;16.50;1.00;;;;;;5092670;28;20184;-82
2022/09/02 07:09:13;;;;;;;2.60;1.30;;;16.60;1.00;;;;;;5084623;28;20644;-81
2022/09/02 07:11:40;;;;;;;2.00;1.17;;;16.70;1.00;;;;;;5072470;28;20193;-81
2022/09/02 07:14:08;;;;;;;1.63;1.20;;;16.80;1.00;;;;;;5075341;28;20277;-79
2022/09/02 07:16:42;;;;;;;1.77;1.20;;;16.80;1.00;;;;;;5075593;28;20215;-81
2022/09/02 07:19:09;;;;;;;2.55;1.08;;;17.00;1.00;;;;;;5076131;28;20501;-82
2022/09/02 07:21:37;;;;;;;1.15;1.05;;;17.00;1.00;;;;;;5075779;28;20197;-82
2022/09/02 07:24:05;;;;;;;2.38;1.25;;;17.10;1.00;;;;;;5099348;22;20297;-80
2022/09/02 07:26:33;;;;;;;4.15;1.42;;;17.20;1.00;;;;;;5095417;28;20196;-83
2022/09/02 07:28:59;;;;;;;4.00;1.35;;;17.20;1.00;;;;;;5098655;28;20524;-83
2022/09/02 07:31:28;;;;;;;2.05;1.15;;;17.30;1.00;;;;;;5102752;28;20304;-82
2022/09/02 07:33:57;;;;;;;1.88;1.23;;;17.40;1.00;;;;;;5092483;28;20189;-82
2022/09/02 07:36:25;;;;;;;1.58;1.25;;;17.50;99.90;;;;;;5095639;28;20207;-81
2022/09/02 07:38:53;;;;;;;1.80;1.05;;;17.60;1.00;;;;;;5096007;28;20578;-82
2022/09/02 07:41:22;;;;;;;1.27;1.02;;;17.80;1.00;;;;;;5095681;28;20197;-81
2022/09/02 07:43:50;;;;;;;1.88;1.50;;;17.90;99.90;;;;;;5095520;28;20221;-82
2022/09/02 07:46:17;;;;;;;4.75;1.38;;;18.00;99.90;;;;;;5095337;28;20211;-82
2022/09/02 07:48:44;;;;;;;1.38;1.00;;;18.10;99.90;;;;;;5095639;28;20205;-82
2022/09/02 07:51:11;;;;;;;2.83;1.00;;;18.20;1.00;;;;;;5081233;28;20237;-80
2022/09/02 07:53:39;;;;;;;4.00;1.50;;;18.30;1.00;;;;;;5075499;28;20301;-81
2022/09/02 07:56:06;;;;;;;2.15;1.30;;;18.40;1.00;;;;;;5083235;28;20273;-82
2022/09/02 07:58:34;;;;;;;3.08;1.17;;;18.60;1.00;;;;;;5095158;28;20200;-80
2022/09/02 08:01:01;;;;;;;2.00;1.40;;;18.80;99.90;;;;;;5095736;28;20528;-82
2022/09/02 08:03:30;;;;;;;2.20;1.00;;;19.00;99.90;;;;;;5094508;28;20616;-80
2022/09/02 08:05:57;;;;;;;1.85;1.08;;;19.20;99.90;;;;;;5075640;28;20212;-80
2022/09/02 08:08:25;;;;;;;2.15;1.20;;;19.40;1.00;;;;;;5083763;28;20204;-81
2022/09/02 08:10:53;;;;;;;1.42;1.33;;;19.60;1.00;;;;;;5093912;28;20593;-81
2022/09/02 08:13:20;;;;;;;2.30;1.10;;;19.80;91.30;;;;;;5105535;28;20235;-81
2022/09/02 08:15:49;;;;;;;1.48;1.02;;;19.80;8.60;;;;;;5115380;28;20192;-84
2022/09/02 08:18:16;;;;;;;1.85;1.00;;;20.00;1.00;;;;;;5114466;28;20196;-83
2022/09/02 08:20:43;;;;;;;3.03;1.52;;;20.10;1.00;;;;;;5088613;28;20612;-84
2022/09/02 08:23:11;;;;;;;2.55;1.30;;;20.20;1.00;;;;;;5074106;28;20270;-82
2022/09/02 08:25:39;;;;;;;2.50;1.30;;;20.30;1.00;;;;;;5075327;28;20532;-82
2022/09/02 08:28:06;;;;;;;2.60;1.00;;;20.40;1.00;;;;;;5087861;28;20661;-82
2022/09/02 08:30:34;;;;;;;1.77;1.10;;;20.60;1.00;;;;;;5094146;28;20196;-82
2022/09/02 08:33:02;;;;;;;2.58;1.15;;;20.70;1.00;;;;;;5093515;28;20205;-84
2022/09/02 08:35:29;;;;;;;1.50;1.35;;;20.80;1.00;;;;;;5074829;28;20246;-81
2022/09/02 08:37:58;;;;;;;2.90;1.20;;;20.90;1.00;;;;;;5073172;28;20281;-82
2022/09/02 08:40:30;;;;;;;2.72;1.58;;;21.00;1.00;;;;;;5073247;28;20205;-82
2022/09/02 08:42:57;;;;;;;2.80;1.30;;;21.20;1.00;;;;;;5081546;28;20284;-82
2022/09/02 08:45:28;;;;;;;4.53;1.65;;;21.40;1.00;;;;;;5094053;28;20267;-81
2022/09/02 08:48:07;;;;;;;1.77;1.40;;;21.60;1.00;;;;;;5094090;28;20201;-82
2022/09/02 08:50:37;;;;;;;2.72;1.40;;;21.90;1.00;;;;;;5078451;28;20292;-82
2022/09/02 08:53:10;;;;;;;2.35;1.33;;;22.20;1.00;;;;;;5073543;28;20703;-81
2022/09/02 08:55:45;;;;;;;3.47;1.20;;;22.20;99.90;;;;;;5079404;28;20211;-83
2022/09/02 08:58:17;;;;;;;2.97;1.50;;;22.20;99.90;;;;;;5093210;28;20224;-82
2022/09/02 09:00:50;;;;;;;4.93;1.50;;;22.20;99.90;;;;;;5093964;28;20189;-83
2022/09/02 09:03:25;;;;;;;4.63;1.60;;;22.20;99.90;;;;;;5093741;28;20515;-82
2022/09/02 09:05:59;;;;;;;2.50;1.50;;;22.20;99.90;;;;;;5073006;28;20502;-81
2022/09/02 09:08:33;;;;;;;2.67;1.27;;;22.20;99.90;;;;;;5096271;28;20253;-83
2022/09/02 09:11:03;;;;;;;2.38;1.60;;;22.30;99.90;;;;;;5110929;28;20192;-80
2022/09/02 09:14:02;;;;;;;4.50;1.27;;;22.40;99.90;;;;;;5072115;28;20722;-83
2022/09/02 09:16:38;;;;;;;3.75;1.60;;;22.40;99.90;;;;;;5072836;28;20265;-78
2022/09/02 09:19:11;;;;;;;4.07;2.00;;;22.50;99.90;;;;;;5090618;28;20204;-81
2022/09/02 09:21:39;;;;;;;2.42;1.13;;;22.50;99.90;;;;;;5093413;28;20196;-80
2022/09/02 09:24:17;;;;;;;1.90;1.38;;;22.40;99.90;;;;;;5092804;28;20242;-79
2022/09/02 09:26:46;;;;;;;3.28;1.73;;;22.50;99.90;;;;;;5092769;28;20268;-78
2022/09/02 09:29:13;;;;;;;2.92;1.63;;;22.60;99.90;;;;;;5092785;28;20363;-81
2022/09/02 09:31:41;;;;;;;3.90;1.40;;;22.60;99.90;;;;;;5092281;28;20224;-80
2022/09/02 09:34:13;;;;;;;4.00;1.73;;;22.80;99.90;;;;;;5091819;28;20535;-79
2022/09/02 09:36:50;;;;;;;4.07;1.50;;;22.90;99.90;;;;;;5089407;28;20202;-83
2022/09/02 09:39:29;;;;;;;1.98;1.27;;;23.00;99.90;;;;;;5072929;28;20203;-82
2022/09/02 09:41:57;;;;;;;4.20;1.58;;;23.00;99.90;;;;;;5072587;28;20193;-82
2022/09/02 09:44:45;;;;;;;2.50;1.30;;;23.00;99.90;;;;;;5073110;28;20225;-81
2022/09/02 09:47:18;;;;;;;3.67;1.70;;;23.10;99.90;;;;;;5071444;28;20193;-80
2022/09/02 09:49:47;;;;;;;1.58;1.40;;;23.10;99.90;;;;;;5072715;28;20280;-81
2022/09/02 09:52:25;;;;;;;1.73;1.52;;;23.10;99.90;;;;;;5072124;28;20200;-81
2022/09/02 09:55:18;;;;;;;3.22;1.30;;;23.10;99.90;;;;;;5072201;28;20212;-81
2022/09/02 09:57:47;;;;;;;2.70;1.33;;;23.30;99.90;;;;;;5070173;28;20202;-80
2022/09/02 10:00:25;;;;;;;4.93;1.70;;;23.40;99.90;;;;;;5072649;28;20513;-78
2022/09/02 10:02:56;;;;;;;2.13;1.40;;;23.50;99.90;;;;;;5076461;28;20208;-81
2022/09/02 10:05:33;;;;;;;5.70;1.80;;;23.70;99.90;;;;;;5092313;28;20231;-83
2022/09/02 10:08:02;;;;;;;4.78;1.38;;;23.70;99.90;;;;;;5091743;28;20197;-80
2022/09/02 10:10:31;;;;;;;3.58;1.95;;;23.90;99.90;;;;;;5092818;28;20204;-83
2022/09/02 10:13:01;;;;;;;3.05;1.63;;;23.90;99.90;;;;;;5088747;28;20197;-81
2022/09/02 10:15:39;;;;;;;4.40;1.65;;;23.90;99.90;;;;;;5072178;28;20523;-83
2022/09/02 10:18:16;;;;;;;3.08;1.67;;;24.10;99.90;;;;;;5072451;28;20236;-82
2022/09/02 10:20:55;;;;;;;2.70;1.75;;;24.30;99.90;;;;;;5072543;28;20604;-83
2022/09/02 10:23:42;;;;;;;6.50;1.90;;;24.50;99.90;;;;;;5070974;28;20304;-83
2022/09/02 10:26:20;;;;;;;4.28;2.00;;;24.60;99.90;;;;;;5075125;28;20219;-83
2022/09/02 10:29:07;;;;;;;3.50;2.20;;;24.60;99.90;;;;;;5326445;22;20601;-83
2022/09/02 10:31:41;;;;;;;3.15;1.88;;;24.70;99.90;;;;;;5083180;28;20256;-82
2022/09/02 10:34:20;;;;;;;3.55;1.70;;;24.80;99.90;;;;;;5072097;28;20204;-81
2022/09/02 10:37:10;;;;;;;3.10;1.73;;;24.90;99.90;;;;;;5071339;28;20201;-82
2022/09/02 10:40:00;;;;;;;2.45;1.48;;;25.10;99.90;;;;;;5072174;28;20602;-81
2022/09/02 10:42:39;;;;;;;3.65;1.80;;;25.10;99.90;;;;;;5071840;28;20324;-81
2022/09/02 10:45:16;;;;;;;5.07;1.90;;;25.10;99.90;;;;;;5075980;28;20226;-80
2022/09/02 10:47:48;;;;;;;3.78;1.45;;;25.10;99.90;;;;;;5096176;28;20594;-79
2022/09/02 10:50:22;;;;;;;5.13;1.60;;;25.30;99.90;;;;;;5095908;28;20646;-82
2022/09/02 10:53:22;;;;;;;6.05;2.15;;;25.50;99.90;;;;;;5096381;28;20228;-80
2022/09/02 10:55:57;;;;;;;2.90;1.58;;;25.50;99.90;;;;;;5092284;28;20295;-85
2022/09/02 10:58:36;;;;;;;2.72;1.80;;;25.70;99.90;;;;;;5094754;28;20499;-80
2022/09/02 11:01:06;;;;;;;6.10;1.90;;;25.80;99.90;;;;;;5096119;28;20200;-82
2022/09/02 11:03:38;;;;;;;3.70;1.50;;;25.80;99.90;;;;;;5096891;28;20188;-83
2022/09/02 11:06:11;;;;;;;4.35;1.83;;;25.90;99.90;;;;;;5096707;28;20628;-86
2022/09/02 11:08:42;;;;;;;3.95;2.10;;;26.00;99.90;;;;;;5097112;28;20241;-83
2022/09/02 11:11:14;;;;;;;3.08;1.75;;;26.10;99.90;;;;;;5096935;28;20205;-83
2022/09/02 11:13:54;;;;;;;3.65;1.70;;;26.20;99.90;;;;;;5095317;28;20219;-84
2022/09/02 11:16:25;;;;;;;3.03;1.90;;;26.30;99.90;;;;;;5096063;28;20188;-85
2022/09/02 11:18:58;;;;;;;5.47;2.22;;;26.30;99.90;;;;;;5097168;28;20189;-86
2022/09/02 11:21:37;;;;;;;2.85;1.75;;;26.10;99.90;;;;;;5079817;28;20201;-85
2022/09/02 11:24:10;;;;;;;2.75;1.92;;;26.00;99.90;;;;;;5076035;28;20185;-87
2022/09/02 11:26:44;;;;;;;3.17;1.95;;;26.10;99.90;;;;;;5093261;28;20596;-86
2022/09/02 11:29:16;;;;;;;3.63;1.60;;;26.30;99.90;;;;;;5079702;28;20236;-82
2022/09/02 11:31:48;;;;;;;3.22;1.90;;;26.40;99.90;;;;;;5077064;28;20735;-88
2022/09/02 11:34:33;;;;;;;3.50;1.70;;;26.50;99.90;;;;;;5096515;28;20209;-89
2022/09/02 11:37:01;;;;;;;4.13;1.60;;;26.50;99.90;;;;;;5096226;28;20204;-85
2022/09/02 11:39:34;;;;;;;4.88;1.92;;;26.90;99.90;;;;;;5095102;28;20197;-82
2022/09/02 11:42:15;;;;;;;2.35;1.80;;;26.80;99.90;;;;;;5095625;28;20191;-87
2022/09/02 11:45:23;;;;;;;2.80;1.40;;;27.10;99.90;;;;;;5096328;28;20216;-83
2022/09/02 11:48:15;;;;;;;2.55;1.50;;;27.30;99.90;;;;;;5029294;28;20197;-85
2022/09/02 11:51:05;;;;;;;3.20;1.60;;;27.40;99.90;;;;;;5076470;28;20284;-84
2022/09/02 11:53:36;;;;;;;2.72;1.65;;;27.50;99.90;;;;;;5085543;22;20251;-85
2022/09/02 11:56:08;;;;;;;5.80;1.60;;;27.70;99.90;;;;;;5095879;28;20295;-85
2022/09/02 11:58:40;;;;;;;4.55;2.13;;;27.60;99.90;;;;;;5104559;22;20224;-84
2022/09/02 12:01:23;;;;;;;4.50;1.75;;;27.50;99.90;;;;;;5099559;28;20199;-83
2022/09/02 12:03:56;;;;;;;4.03;2.10;;;27.40;99.90;;;;;;5096020;28;20280;-84
2022/09/02 12:06:23;;;;;;;2.90;1.88;;;27.50;99.90;;;;;;5096470;28;20617;-86
2022/09/02 12:09:11;;;;;;;4.50;2.40;;;27.50;99.90;;;;;;5095249;28;20215;-86
2022/09/02 12:11:52;;;;;;;3.80;2.10;;;27.40;99.90;;;;;;5104741;27;20264;-85
2022/09/02 12:15:03;;;;;;;5.75;1.75;;;27.40;99.90;;;;;;5116433;28;20275;-85
2022/09/02 12:18:05;;;;;;;5.28;2.00;;;27.60;99.90;;;;;;5115585;28;20188;-84
2022/09/02 12:21:09;;;;;;;3.97;2.05;;;27.70;99.90;;;;;;5116042;27;20203;-86
2022/09/02 12:24:11;;;;;;;4.47;1.85;;;27.80;99.90;;;;;;5110725;28;20210;-82
2022/09/02 12:27:10;;;;;;;1.90;1.70;;;28.10;99.90;;;;;;5115398;28;20606;-86
2022/09/02 12:29:38;;;;;;;3.13;2.10;;;28.10;99.90;;;;;;5115133;28;20473;-82
2022/09/02 12:32:05;;;;;;;5.40;2.17;;;28.10;99.90;;;;;;5115648;28;20222;-81
2022/09/02 12:35:08;;;;;;;4.80;2.05;;;28.10;99.90;;;;;;5115688;28;20200;-84
2022/09/02 12:37:54;;;;;;;7.35;2.20;;;28.00;99.90;;;;;;5114676;28;20203;-83
2022/09/02 12:40:32;;;;;;;2.25;1.70;;;28.10;99.90;;;;;;5115549;28;20184;-85
2022/09/02 12:43:05;;;;;;;3.97;1.70;;;28.00;99.90;;;;;;5113901;28;20239;-85
2022/09/02 12:45:41;;;;;;;3.15;1.60;;;27.90;99.90;;;;;;5115010;28;20294;-84
2022/09/02 12:48:13;;;;;;;3.70;1.80;;;28.10;99.90;;;;;;5114285;28;20213;-84
2022/09/02 12:50:55;;;;;;;4.88;2.00;;;28.00;99.90;;;;;;5113077;28;20199;-83
2022/09/02 12:53:40;;;;;;;2.83;1.80;;;27.90;99.90;;;;;;5115065;28;20184;-85
2022/09/02 12:56:20;;;;;;;6.13;2.10;;;28.00;99.90;;;;;;5114260;28;20275;-87
2022/09/02 12:58:48;;;;;;;4.53;1.88;;;28.10;99.90;;;;;;5107250;28;20315;-89
2022/09/02 13:01:20;;;;;;;3.17;1.92;;;28.00;99.90;;;;;;5095318;28;20185;-86
2022/09/02 13:04:29;;;;;;;2.83;1.92;;;28.10;99.90;;;;;;5094391;28;20200;-87
2022/09/02 13:07:23;;;;;;;2.53;1.60;;;28.10;99.90;;;;;;5056908;28;20228;-88
2022/09/02 13:10:09;;;;;;;3.92;1.83;;;28.20;99.90;;;;;;5094841;28;20359;-86
2022/09/02 13:13:10;;;;;;;5.32;1.75;;;28.20;99.90;;;;;;5093887;28;20203;-91